Brasinho — CSXI9 — position and weather

sailwx.info

Track history (hours):
 
Tides and Currents Weather Stations Pressure Air Temp Water Temp Dewpoint Dewpoint Depression Visibility Wind Speed Wind Dir Waves Ship Positions

Brasinho

Last reported at 2016-Feb-11 15:28 UTC. Time now 2016-Feb-13 10:58 UTC.
Position N 37°00' W 007°55'.

Length 57 m; draft 1.8 m.

Type: Dredging. MMSI: 263670240.

Date/timePositionNaut miles runAvg speedWind from/ knotsBaromVisibWave heightAir tempDewpointWater temp
2016-Feb-11 15:28N 37°00' W 007°55'0 0.0
2016-Feb-11 10:22N 37°00' W 007°55'0 0.0
2016-Feb-11 09:19N 37°00' W 007°55'0 0.0
2016-Feb-11 08:22N 37°00' W 007°55'0 0.0
2016-Feb-10 14:30N 37°00' W 007°55'0 0.0
2016-Feb-10 13:27N 37°00' W 007°55'0 0.0
2016-Feb-10 12:30N 37°00' W 007°55'0 0.0
2016-Feb-10 11:33N 37°00' W 007°55'0 0.0
2016-Feb-10 10:33N 37°00' W 007°55'0 0.0
2016-Feb-10 09:33N 37°00' W 007°55'0 0.0
2016-Feb-09 15:22N 37°00' W 007°55'0 0.0
2016-Feb-09 14:25N 37°00' W 007°55'0 0.0
2016-Feb-09 10:13N 37°00' W 007°55'0 0.0
2016-Feb-09 09:25N 37°00' W 007°55'  
2016-Feb-06 18:23N 37°00' W 007°55'2 2.4
2016-Feb-06 17:33N 36°59' W 007°53'2 1.5
2016-Feb-06 16:26N 36°59' W 007°51'0 0.0
2016-Feb-06 15:26N 36°59' W 007°51'0 0.0
2016-Feb-06 14:27N 36°59' W 007°51'2 2.4
2016-Feb-06 13:33N 37°01' W 007°52'2 1.9
2016-Feb-06 12:17N 37°01' W 007°49'1 1.2
2016-Feb-06 11:32N 37°02' W 007°49'5 4.7
2016-Feb-06 10:33N 36°60' W 007°54'1 0.1
2016-Feb-05 16:33N 37°00' W 007°55'0 0.0
2016-Feb-05 15:33N 37°00' W 007°55'0 0.0
2016-Feb-05 14:33N 37°00' W 007°55'0 0.0
2016-Feb-05 13:24N 37°00' W 007°55'0 0.0
2016-Feb-05 12:27N 37°00' W 007°55'0 0.0
2016-Feb-05 11:27N 37°00' W 007°55'0 0.0
2016-Feb-05 10:27N 37°00' W 007°55'0 0.0
2016-Feb-04 10:22N 37°00' W 007°55'0 0.0
2016-Feb-04 09:25N 37°00' W 007°55'3 3.8
2016-Feb-04 08:33N 36°58' W 007°52'1 0.5
2016-Feb-04 07:22N 36°59' W 007°52'0 0.0
2016-Feb-04 06:25N 36°59' W 007°52'1 1.1
2016-Feb-04 05:34N 36°58' W 007°52'1 0.8
2016-Feb-04 04:23N 36°58' W 007°51'0 0.1
2016-Feb-04 03:29N 36°58' W 007°51'3 2.7
2016-Feb-04 02:33N 37°01' W 007°51'2 1.9
2016-Feb-04 01:31N 37°01' W 007°48'3 2.6
2016-Feb-04 00:33N 37°01' W 007°52'2 1.5
2016-Feb-03 23:05N 36°58' W 007°51'0 0.0
2016-Feb-03 22:32N 36°58' W 007°51'2 2.3
2016-Feb-03 21:33N 37°01' W 007°51'2 2.0
2016-Feb-03 20:23N 37°01' W 007°48'3 3.6
2016-Feb-03 19:33N 36°59' W 007°51'1 0.6
2016-Feb-03 18:24N 36°58' W 007°51'0 0.0
2016-Feb-03 17:30N 36°58' W 007°51'3 3.2
2016-Feb-03 16:27N 37°02' W 007°50'1 1.1
2016-Feb-03 15:32N 37°01' W 007°49'3 3.1
2016-Feb-03 14:33N 36°59' W 007°52'1 0.6
2016-Feb-03 13:20N 36°58' W 007°51'0 0.6
2016-Feb-03 12:33N 36°58' W 007°52'4 4.0
2016-Feb-03 11:33N 37°01' W 007°49'1 1.2
2016-Feb-03 10:32N 37°01' W 007°50'3 2.7
2016-Feb-03 09:26N 36°58' W 007°51'0 0.0
2016-Feb-03 08:23N 36°58' W 007°51'1 0.8
2016-Feb-03 07:30N 36°59' W 007°52'3 3.3
2016-Feb-03 06:30N 37°01' W 007°50'0 0.0
2016-Feb-03 05:12N 37°01' W 007°50'0 0.0
2016-Feb-03 04:30N 37°01' W 007°50'0 0.0
2016-Feb-03 03:33N 37°01' W 007°50'0 0.0
2016-Feb-03 02:33N 37°01' W 007°50'0 0.0
2016-Feb-03 01:33N 37°01' W 007°50'0 0.0
2016-Feb-03 00:33N 37°01' W 007°50'1 1.0
2016-Feb-02 23:26N 37°01' W 007°49'0 0.3
2016-Feb-02 22:33N 37°01' W 007°49'1 0.2
2016-Feb-02 16:16N 37°02' W 007°50'0 0.0
2016-Feb-02 14:29N 37°02' W 007°50'0 0.0
2016-Feb-02 12:26N 37°02' W 007°50'0 0.0
2016-Feb-02 11:26N 37°02' W 007°50'1 1.3
2016-Feb-02 10:33N 37°01' W 007°51'2 2.3
2016-Feb-02 09:32N 36°58' W 007°51'0 0.0
2016-Feb-02 08:20N 36°58' W 007°51'1 1.3
2016-Feb-02 07:33N 36°59' W 007°51'2 2.1
2016-Feb-02 06:31N 37°01' W 007°50'0 0.1
2016-Feb-02 05:23N 37°01' W 007°50'1 1.5
2016-Feb-02 04:32N 37°01' W 007°48'3 2.6
2016-Feb-02 03:33N 36°60' W 007°51'1 1.1
2016-Feb-02 02:32N 36°58' W 007°51'0 0.0
2016-Feb-02 01:32N 36°58' W 007°51'1 0.9
2016-Feb-02 00:34N 36°59' W 007°51'3 2.8
2016-Feb-01 23:33N 37°01' W 007°48'3 2.5
2016-Feb-01 22:33N 36°60' W 007°51'1 1.0
2016-Feb-01 21:25N 36°58' W 007°51'0 0.0
2016-Feb-01 20:28N 36°59' W 007°51'0 0.0
2016-Feb-01 16:30N 36°58' W 007°51'  
Track history (hours):
 
Tides and Currents Weather Stations Pressure Air Temp Water Temp Dewpoint Dewpoint Depression Visibility Wind Speed Wind Dir Waves Ship Positions

Brasinho

Last reported at 2016-Feb-11 15:28 UTC. Time now 2016-Feb-13 10:58 UTC.
Position N 37°00' W 007°55'.

Length 57 m; draft 1.8 m.

Type: Dredging. MMSI: 263670240.

Date/timePositionNaut miles runAvg speedWind from/ knotsBaromVisibWave heightAir tempDewpointWater temp
2016-Feb-11 15:28N 37°00' W 007°55'0 0.0
2016-Feb-11 10:22N 37°00' W 007°55'0 0.0
2016-Feb-11 09:19N 37°00' W 007°55'0 0.0
2016-Feb-11 08:22N 37°00' W 007°55'0 0.0
2016-Feb-10 14:30N 37°00' W 007°55'0 0.0
2016-Feb-10 13:27N 37°00' W 007°55'0 0.0
2016-Feb-10 12:30N 37°00' W 007°55'0 0.0
2016-Feb-10 11:33N 37°00' W 007°55'0 0.0
2016-Feb-10 10:33N 37°00' W 007°55'0 0.0
2016-Feb-10 09:33N 37°00' W 007°55'0 0.0
2016-Feb-09 15:22N 37°00' W 007°55'0 0.0
2016-Feb-09 14:25N 37°00' W 007°55'0 0.0
2016-Feb-09 10:13N 37°00' W 007°55'0 0.0
2016-Feb-09 09:25N 37°00' W 007°55'  
2016-Feb-06 18:23N 37°00' W 007°55'2 2.4
2016-Feb-06 17:33N 36°59' W 007°53'2 1.5
2016-Feb-06 16:26N 36°59' W 007°51'0 0.0
2016-Feb-06 15:26N 36°59' W 007°51'0 0.0
2016-Feb-06 14:27N 36°59' W 007°51'2 2.4
2016-Feb-06 13:33N 37°01' W 007°52'2 1.9
2016-Feb-06 12:17N 37°01' W 007°49'1 1.2
2016-Feb-06 11:32N 37°02' W 007°49'5 4.7
2016-Feb-06 10:33N 36°60' W 007°54'1 0.1
2016-Feb-05 16:33N 37°00' W 007°55'0 0.0
2016-Feb-05 15:33N 37°00' W 007°55'0 0.0
2016-Feb-05 14:33N 37°00' W 007°55'0 0.0
2016-Feb-05 13:24N 37°00' W 007°55'0 0.0
2016-Feb-05 12:27N 37°00' W 007°55'0 0.0
2016-Feb-05 11:27N 37°00' W 007°55'0 0.0
2016-Feb-05 10:27N 37°00' W 007°55'0 0.0
2016-Feb-04 10:22N 37°00' W 007°55'0 0.0
2016-Feb-04 09:25N 37°00' W 007°55'3 3.8
2016-Feb-04 08:33N 36°58' W 007°52'1 0.5
2016-Feb-04 07:22N 36°59' W 007°52'0 0.0
2016-Feb-04 06:25N 36°59' W 007°52'1 1.1
2016-Feb-04 05:34N 36°58' W 007°52'1 0.8
2016-Feb-04 04:23N 36°58' W 007°51'0 0.1
2016-Feb-04 03:29N 36°58' W 007°51'3 2.7
2016-Feb-04 02:33N 37°01' W 007°51'2 1.9
2016-Feb-04 01:31N 37°01' W 007°48'3 2.6
2016-Feb-04 00:33N 37°01' W 007°52'2 1.5
2016-Feb-03 23:05N 36°58' W 007°51'0 0.0
2016-Feb-03 22:32N 36°58' W 007°51'2 2.3
2016-Feb-03 21:33N 37°01' W 007°51'2 2.0
2016-Feb-03 20:23N 37°01' W 007°48'3 3.6
2016-Feb-03 19:33N 36°59' W 007°51'1 0.6
2016-Feb-03 18:24N 36°58' W 007°51'0 0.0
2016-Feb-03 17:30N 36°58' W 007°51'3 3.2
2016-Feb-03 16:27N 37°02' W 007°50'1 1.1
2016-Feb-03 15:32N 37°01' W 007°49'3 3.1
2016-Feb-03 14:33N 36°59' W 007°52'1 0.6
2016-Feb-03 13:20N 36°58' W 007°51'0 0.6
2016-Feb-03 12:33N 36°58' W 007°52'4 4.0
2016-Feb-03 11:33N 37°01' W 007°49'1 1.2
2016-Feb-03 10:32N 37°01' W 007°50'3 2.7
2016-Feb-03 09:26N 36°58' W 007°51'0 0.0
2016-Feb-03 08:23N 36°58' W 007°51'1 0.8
2016-Feb-03 07:30N 36°59' W 007°52'3 3.3
2016-Feb-03 06:30N 37°01' W 007°50'0 0.0
2016-Feb-03 05:12N 37°01' W 007°50'0 0.0
2016-Feb-03 04:30N 37°01' W 007°50'0 0.0
2016-Feb-03 03:33N 37°01' W 007°50'0 0.0
2016-Feb-03 02:33N 37°01' W 007°50'0 0.0
2016-Feb-03 01:33N 37°01' W 007°50'0 0.0
2016-Feb-03 00:33N 37°01' W 007°50'1 1.0
2016-Feb-02 23:26N 37°01' W 007°49'0 0.3
2016-Feb-02 22:33N 37°01' W 007°49'1 0.2
2016-Feb-02 16:16N 37°02' W 007°50'0 0.0
2016-Feb-02 14:29N 37°02' W 007°50'0 0.0
2016-Feb-02 12:26N 37°02' W 007°50'0 0.0
2016-Feb-02 11:26N 37°02' W 007°50'1 1.3
2016-Feb-02 10:33N 37°01' W 007°51'2 2.3
2016-Feb-02 09:32N 36°58' W 007°51'0 0.0
2016-Feb-02 08:20N 36°58' W 007°51'1 1.3
2016-Feb-02 07:33N 36°59' W 007°51'2 2.1
2016-Feb-02 06:31N 37°01' W 007°50'0 0.1
2016-Feb-02 05:23N 37°01' W 007°50'1 1.5
2016-Feb-02 04:32N 37°01' W 007°48'3 2.6
2016-Feb-02 03:33N 36°60' W 007°51'1 1.1
2016-Feb-02 02:32N 36°58' W 007°51'0 0.0
2016-Feb-02 01:32N 36°58' W 007°51'1 0.9
2016-Feb-02 00:34N 36°59' W 007°51'3 2.8
2016-Feb-01 23:33N 37°01' W 007°48'3 2.5
2016-Feb-01 22:33N 36°60' W 007°51'1 1.0
2016-Feb-01 21:25N 36°58' W 007°51'0 0.0
2016-Feb-01 20:28N 36°59' W 007°51'0 0.0
2016-Feb-01 16:30N 36°58' W 007°51'  

Dump ship's entire track history